createdAt,value
2018-06-13T00:01:19.160Z,59.09
2018-06-13T00:03:46.313Z,58.82
2018-06-13T00:06:13.484Z,58.11
2018-06-13T00:08:40.696Z,58.47
2018-06-13T00:11:08.311Z,63.81
2018-06-13T00:13:35.902Z,62.59
2018-06-13T00:16:03.955Z,60.60
2018-06-13T00:18:32.842Z,59.87
2018-06-13T00:21:00.750Z,60.03
2018-06-13T00:23:28.016Z,60.45
2018-06-13T00:25:55.160Z,60.48
2018-06-13T00:28:22.313Z,60.60
2018-06-13T00:30:49.476Z,59.33
2018-06-13T00:33:16.644Z,59.08
2018-06-13T00:35:43.799Z,60.41
2018-06-13T00:38:11.020Z,60.25
2018-06-13T00:40:38.419Z,59.52
2018-06-13T00:43:06.107Z,61.93
2018-06-13T00:45:34.133Z,61.50
2018-06-13T00:48:02.251Z,60.70
2018-06-13T00:50:32.466Z,60.11
2018-06-13T00:53:00.978Z,60.98
2018-06-13T00:55:28.284Z,61.04
2018-06-13T00:57:55.432Z,61.22
2018-06-13T01:00:22.671Z,61.40
2018-06-13T01:02:49.842Z,61.29
2018-06-13T01:05:16.980Z,61.53
2018-06-13T01:07:44.182Z,62.14
2018-06-13T01:10:11.344Z,62.53
2018-06-13T01:12:38.854Z,63.60
2018-06-13T01:15:06.293Z,62.29
2018-06-13T01:17:34.096Z,61.92
2018-06-13T01:20:02.169Z,63.31
2018-06-13T01:22:29.830Z,63.00
2018-06-13T01:24:57.072Z,62.81
2018-06-13T01:27:24.189Z,62.49
2018-06-13T01:29:51.381Z,62.54
2018-06-13T01:32:18.560Z,62.41
2018-06-13T01:34:45.698Z,63.11
2018-06-13T01:37:12.993Z,63.78
2018-06-13T01:39:40.200Z,63.95
2018-06-13T01:42:07.600Z,63.28
2018-06-13T01:44:35.084Z,62.89
2018-06-13T01:47:03.058Z,63.83
2018-06-13T01:49:30.856Z,63.49
2018-06-13T01:51:58.061Z,64.71
2018-06-13T01:54:25.318Z,65.09
2018-06-13T01:56:52.478Z,64.09
2018-06-13T01:59:19.696Z,63.96
2018-06-13T02:01:46.860Z,64.67
2018-06-13T02:04:13.995Z,64.66
2018-06-13T02:06:41.181Z,65.48
2018-06-13T02:09:08.528Z,65.06
2018-06-13T02:11:35.981Z,64.73
2018-06-13T02:14:03.932Z,65.59
2018-06-13T02:16:31.912Z,65.57
2018-06-13T02:18:59.388Z,64.87
2018-06-13T02:21:26.668Z,66.11
2018-06-13T02:23:53.798Z,65.55
2018-06-13T02:26:20.916Z,66.75
2018-06-13T02:28:48.138Z,66.83
2018-06-13T02:31:15.403Z,66.72
2018-06-13T02:33:42.577Z,66.56
2018-06-13T02:36:10.008Z,66.89
2018-06-13T02:38:37.425Z,67.80
2018-06-13T02:41:04.946Z,67.42
2018-06-13T02:43:32.406Z,67.70
2018-06-13T02:46:00.075Z,67.97
2018-06-13T02:48:27.279Z,68.14
2018-06-13T02:50:54.607Z,68.32
2018-06-13T02:53:21.844Z,68.25
2018-06-13T02:55:49.017Z,67.63
2018-06-13T02:58:16.309Z,69.25
2018-06-13T03:00:43.488Z,69.33
2018-06-13T03:03:10.667Z,69.09
2018-06-13T03:05:38.462Z,69.02
2018-06-13T03:08:06.046Z,68.48
2018-06-13T03:10:33.861Z,69.20
2018-06-13T03:13:02.349Z,68.78
2018-06-13T03:15:31.118Z,69.40
2018-06-13T03:17:58.359Z,69.33
2018-06-13T03:20:25.908Z,69.61
2018-06-13T03:22:53.170Z,69.14
2018-06-13T03:25:20.330Z,69.38
2018-06-13T03:27:47.515Z,69.32
2018-06-13T03:30:14.755Z,69.79
2018-06-13T03:32:41.912Z,70.02
2018-06-13T03:35:09.437Z,69.75
2018-06-13T03:37:36.786Z,70.80
2018-06-13T03:40:04.544Z,70.80
2018-06-13T03:42:32.374Z,70.20
2018-06-13T03:44:59.958Z,69.75
2018-06-13T03:47:27.371Z,70.19
2018-06-13T03:49:54.965Z,69.68
2018-06-13T03:52:22.095Z,69.52
2018-06-13T03:54:49.358Z,70.16
2018-06-13T03:57:16.575Z,70.13
2018-06-13T03:59:43.825Z,69.83
2018-06-13T04:02:11.020Z,69.35
2018-06-13T04:04:38.815Z,69.37
2018-06-13T04:07:06.551Z,69.06
2018-06-13T04:09:34.184Z,69.63
2018-06-13T04:12:02.731Z,70.69
2018-06-13T04:14:30.585Z,70.19
2018-06-13T04:16:57.864Z,69.17
2018-06-13T04:19:26.532Z,69.66
2018-06-13T04:21:53.639Z,69.00
2018-06-13T04:24:20.839Z,69.88
2018-06-13T04:26:48.024Z,69.68
2018-06-13T04:29:15.266Z,69.33
2018-06-13T04:31:42.385Z,69.63
2018-06-13T04:34:09.894Z,69.52
2018-06-13T04:36:37.487Z,69.66
2018-06-13T04:39:08.472Z,69.68
2018-06-13T04:41:36.259Z,68.91
2018-06-13T04:44:04.287Z,67.83
2018-06-13T04:46:32.566Z,68.83
2018-06-13T04:49:00.830Z,69.03
2018-06-13T04:51:28.496Z,69.70
2018-06-13T04:53:55.883Z,68.31
2018-06-13T04:56:23.040Z,68.88
2018-06-13T04:58:50.985Z,69.34
2018-06-13T05:01:18.120Z,68.82
2018-06-13T05:03:45.304Z,68.22
2018-06-13T05:06:12.437Z,68.30
2018-06-13T05:08:39.779Z,67.96
2018-06-13T05:11:07.236Z,67.96
2018-06-13T05:13:34.530Z,66.11
2018-06-13T05:16:02.356Z,66.15
2018-06-13T05:18:29.883Z,66.25
2018-06-13T05:20:57.067Z,67.93
2018-06-13T05:23:24.182Z,66.13
2018-06-13T05:25:51.356Z,66.86
2018-06-13T05:28:18.487Z,66.37
2018-06-13T05:30:45.780Z,66.55
2018-06-13T05:33:12.953Z,67.26
2018-06-13T05:35:40.319Z,66.72
2018-06-13T05:38:08.166Z,68.70
2018-06-13T05:40:35.814Z,67.37
2018-06-13T05:43:03.718Z,67.27
2018-06-13T05:45:31.655Z,67.92
2018-06-13T05:47:58.999Z,67.66
2018-06-13T05:50:26.124Z,66.40
2018-06-13T05:52:53.508Z,66.75
2018-06-13T05:55:20.666Z,67.22
2018-06-13T05:57:47.797Z,66.22
2018-06-13T06:00:14.903Z,66.79
2018-06-13T06:02:42.111Z,68.74
2018-06-13T06:05:09.597Z,67.97
2018-06-13T06:07:36.890Z,66.94
2018-06-13T06:10:04.650Z,66.58
2018-06-13T06:12:32.391Z,66.52
2018-06-13T06:15:00.085Z,66.34
2018-06-13T06:17:27.249Z,67.09
2018-06-13T06:19:54.376Z,67.64
2018-06-13T06:22:21.579Z,66.70
2018-06-13T06:24:48.748Z,66.19
2018-06-13T06:27:15.910Z,66.21
2018-06-13T06:29:43.044Z,66.79
2018-06-13T06:32:10.459Z,67.47
2018-06-13T06:34:37.994Z,68.73
2018-06-13T06:37:05.531Z,69.53
2018-06-13T06:39:33.700Z,66.78
2018-06-13T06:42:01.702Z,66.01
2018-06-13T06:44:29.012Z,65.64
2018-06-13T06:46:56.187Z,64.67
2018-06-13T06:49:23.323Z,64.40
2018-06-13T06:51:50.495Z,65.51
2018-06-13T06:54:18.069Z,65.49
2018-06-13T06:56:45.208Z,64.71
2018-06-13T06:59:12.331Z,65.41
2018-06-13T07:01:39.700Z,64.05
2018-06-13T07:04:07.188Z,64.72
2018-06-13T07:06:34.726Z,64.22
2018-06-13T07:09:02.538Z,63.97
2018-06-13T07:11:31.114Z,63.65
2018-06-13T07:13:58.316Z,62.53
2018-06-13T07:16:25.468Z,63.39
2018-06-13T07:18:52.599Z,62.55
2018-06-13T07:21:19.826Z,64.17
2018-06-13T07:23:47.009Z,61.72
2018-06-13T07:26:14.122Z,61.29
2018-06-13T07:28:41.342Z,60.18
2018-06-13T07:31:08.694Z,59.47
2018-06-13T07:33:36.950Z,59.63
2018-06-13T07:36:04.312Z,60.65
2018-06-13T07:38:32.095Z,59.97
2018-06-13T07:40:59.490Z,60.41
2018-06-13T07:43:26.689Z,59.06
2018-06-13T07:45:53.892Z,57.86
2018-06-13T07:48:21.044Z,58.00
2018-06-13T07:50:48.216Z,54.20
2018-06-13T07:53:15.544Z,54.51
2018-06-13T07:55:42.655Z,56.72
2018-06-13T07:58:09.983Z,54.12
2018-06-13T08:00:37.363Z,52.67
2018-06-13T08:03:05.250Z,53.79
2018-06-13T08:05:34.204Z,54.09
2018-06-13T08:08:02.439Z,54.97
2018-06-13T08:10:30.317Z,53.68
2018-06-13T08:12:57.477Z,54.87
2018-06-13T08:15:24.693Z,55.13
2018-06-13T08:17:52.029Z,58.29
2018-06-13T08:20:19.249Z,55.12
2018-06-13T08:22:46.526Z,52.56
2018-06-13T08:25:13.662Z,54.15
2018-06-13T08:27:46.773Z,52.35
2018-06-13T08:30:14.007Z,53.35
2018-06-13T08:32:41.129Z,51.67
2018-06-13T08:35:08.401Z,51.98
2018-06-13T08:37:36.806Z,53.21
2018-06-13T08:40:04.227Z,53.32
2018-06-13T08:42:32.452Z,53.18
2018-06-13T08:45:00.357Z,53.65
2018-06-13T08:47:27.479Z,51.76
2018-06-13T08:49:54.661Z,54.77
2018-06-13T08:52:21.848Z,46.59
2018-06-13T08:54:48.988Z,47.70
2018-06-13T08:57:16.095Z,48.68
2018-06-13T08:59:43.224Z,51.27
2018-06-13T09:02:10.447Z,51.24
2018-06-13T09:04:37.929Z,52.37
2018-06-13T09:07:05.339Z,53.44
2018-06-13T09:09:33.233Z,55.16
2018-06-13T09:12:00.803Z,53.67
2018-06-13T09:14:28.005Z,54.16
2018-06-13T09:16:55.136Z,51.38
2018-06-13T09:19:22.384Z,51.25
2018-06-13T09:21:49.562Z,50.12
2018-06-13T09:24:16.678Z,51.38
2018-06-13T09:26:43.819Z,49.77
2018-06-13T09:29:11.190Z,49.58
2018-06-13T09:31:38.840Z,49.33
2018-06-13T09:34:06.503Z,53.00
2018-06-13T09:36:34.456Z,53.98
2018-06-13T09:39:03.173Z,51.97
2018-06-13T09:41:31.387Z,52.96
2018-06-13T09:43:58.765Z,54.15
2018-06-13T09:46:25.923Z,56.65
2018-06-13T09:48:53.480Z,55.16
2018-06-13T09:51:20.665Z,54.21
2018-06-13T09:53:47.792Z,56.67
2018-06-13T09:56:15.017Z,53.04
2018-06-13T09:58:47.944Z,53.64
2018-06-13T10:01:20.736Z,51.31
2018-06-13T10:03:49.968Z,52.65
2018-06-13T10:06:17.148Z,50.86
2018-06-13T10:08:44.280Z,49.67
2018-06-13T10:11:11.478Z,50.74
2018-06-13T10:13:38.777Z,50.95
2018-06-13T10:16:06.179Z,56.78
2018-06-13T10:18:34.309Z,52.19
2018-06-13T10:21:02.365Z,53.95
2018-06-13T10:23:29.802Z,52.83
2018-06-13T10:25:56.940Z,50.52
2018-06-13T10:28:24.065Z,48.30
2018-06-13T10:30:51.896Z,46.61
2018-06-13T10:33:19.149Z,50.95
2018-06-13T10:35:46.263Z,47.07
2018-06-13T10:38:13.402Z,47.10
2018-06-13T10:40:40.727Z,45.70
2018-06-13T10:43:08.437Z,46.02
2018-06-13T10:45:35.930Z,45.70
2018-06-13T10:48:03.880Z,46.65
2018-06-13T10:50:31.665Z,48.02
2018-06-13T10:52:59.775Z,47.65
2018-06-13T10:55:27.004Z,46.82
2018-06-13T10:57:54.196Z,47.85
2018-06-13T11:00:21.459Z,46.77
2018-06-13T11:02:48.683Z,48.93
2018-06-13T11:05:15.804Z,49.33
2018-06-13T11:07:42.935Z,51.94
2018-06-13T11:10:10.081Z,51.11
2018-06-13T11:12:37.438Z,54.22
2018-06-13T11:15:04.736Z,53.41
2018-06-13T11:17:32.125Z,54.13
2018-06-13T11:20:01.778Z,55.83
2018-06-13T11:22:28.887Z,56.94
2018-06-13T11:24:56.091Z,57.26
2018-06-13T11:27:23.188Z,57.30
2018-06-13T11:29:50.312Z,59.50
2018-06-13T11:32:19.533Z,61.45
2018-06-13T11:34:46.644Z,59.49
2018-06-13T11:37:13.909Z,59.42
2018-06-13T11:39:41.179Z,58.46
2018-06-13T11:42:09.458Z,58.80
2018-06-13T11:44:36.989Z,59.98
2018-06-13T11:47:04.349Z,60.72
2018-06-13T11:49:31.530Z,60.26
2018-06-13T11:51:58.873Z,60.13
2018-06-13T11:54:26.044Z,61.28
2018-06-13T11:56:53.172Z,60.93
2018-06-13T11:59:20.304Z,60.91
2018-06-13T12:01:48.590Z,61.97
2018-06-13T12:04:16.212Z,60.60
2018-06-13T12:06:43.490Z,60.21
2018-06-13T12:09:11.121Z,57.99
2018-06-13T12:11:38.388Z,58.23
2018-06-13T12:14:05.719Z,58.55
2018-06-13T12:16:32.881Z,54.56
2018-06-13T12:19:00.099Z,56.61
2018-06-13T12:21:27.259Z,55.61
2018-06-13T12:23:54.402Z,54.59
2018-06-13T12:26:21.538Z,55.72
2018-06-13T12:28:48.650Z,54.56
2018-06-13T12:31:15.907Z,56.06
2018-06-13T12:33:43.235Z,57.12
2018-06-13T12:36:10.441Z,56.77
2018-06-13T12:38:38.964Z,56.57
2018-06-13T12:41:06.773Z,56.43
2018-06-13T12:43:35.358Z,56.91
2018-06-13T12:46:04.225Z,55.67
2018-06-13T12:48:31.449Z,58.07
2018-06-13T12:50:58.603Z,58.91
2018-06-13T12:53:25.771Z,61.48
2018-06-13T12:55:53.005Z,62.39
2018-06-13T12:58:20.241Z,63.33
2018-06-13T13:00:47.517Z,62.23
2018-06-13T13:03:14.727Z,61.89
2018-06-13T13:05:42.063Z,62.59
2018-06-13T13:08:09.439Z,62.44
2018-06-13T13:10:37.669Z,62.79
2018-06-13T13:13:06.023Z,60.98
2018-06-13T13:15:34.116Z,60.48
2018-06-13T13:18:01.330Z,59.67
2018-06-13T13:20:28.573Z,59.29
2018-06-13T13:22:55.745Z,60.42
2018-06-13T13:25:22.970Z,59.15
2018-06-13T13:27:50.081Z,58.82
2018-06-13T13:30:17.377Z,58.39
2018-06-13T13:32:44.654Z,58.06
2018-06-13T13:35:11.929Z,57.77
2018-06-13T13:37:39.298Z,55.23
2018-06-13T13:40:07.673Z,55.43
2018-06-13T13:42:35.132Z,54.33
2018-06-13T13:45:02.412Z,56.05
2018-06-13T13:47:29.600Z,57.44
2018-06-13T13:49:56.732Z,58.42
2018-06-13T13:52:23.904Z,58.97
2018-06-13T13:54:51.066Z,59.95
2018-06-13T13:57:18.177Z,61.74
2018-06-13T13:59:45.374Z,61.36
2018-06-13T14:02:12.646Z,62.90
2018-06-13T14:04:39.926Z,60.57
2018-06-13T14:07:07.255Z,59.69
2018-06-13T14:09:34.675Z,59.20
2018-06-13T14:12:03.967Z,60.21
2018-06-13T14:14:31.204Z,58.35
2018-06-13T14:16:58.315Z,61.63
2018-06-13T14:19:25.441Z,58.70
2018-06-13T14:21:52.620Z,57.57
2018-06-13T14:24:21.803Z,58.16
2018-06-13T14:26:48.925Z,57.57
2018-06-13T14:29:16.240Z,62.20
2018-06-13T14:31:43.503Z,59.75
2018-06-13T14:34:10.922Z,60.90
2018-06-13T14:36:38.264Z,61.26
2018-06-13T14:39:08.429Z,60.71
2018-06-13T14:41:35.949Z,60.58
2018-06-13T14:44:03.345Z,61.13
2018-06-13T14:46:30.569Z,60.07
2018-06-13T14:48:57.727Z,60.70
2018-06-13T14:51:24.937Z,59.68
2018-06-13T14:53:54.577Z,61.36
2018-06-13T14:56:26.874Z,59.61
2018-06-13T14:58:54.160Z,59.65
2018-06-13T15:01:21.276Z,60.48
2018-06-13T15:03:48.457Z,58.66
2018-06-13T15:06:15.572Z,59.37
2018-06-13T15:08:42.808Z,59.47
2018-06-13T15:11:10.200Z,59.20
2018-06-13T15:13:37.562Z,59.88
2018-06-13T15:16:05.105Z,61.08
2018-06-13T15:18:32.491Z,63.33
2018-06-13T15:20:59.669Z,61.58
2018-06-13T15:23:26.824Z,62.63
2018-06-13T15:25:54.051Z,62.69
2018-06-13T15:28:21.188Z,62.57
2018-06-13T15:30:48.360Z,62.62
2018-06-13T15:33:15.513Z,62.64
2018-06-13T15:35:42.811Z,63.16
2018-06-13T15:38:10.055Z,63.18
2018-06-13T15:40:37.525Z,63.42
2018-06-13T15:43:05.946Z,63.26
2018-06-13T15:45:33.184Z,62.23
2018-06-13T15:48:00.620Z,64.18
2018-06-13T15:50:27.835Z,63.58
2018-06-13T15:52:54.948Z,62.74
2018-06-13T15:55:22.076Z,62.70
2018-06-13T15:57:49.216Z,61.80
2018-06-13T16:00:16.364Z,62.37
2018-06-13T16:02:43.597Z,62.83
2018-06-13T16:05:10.834Z,62.04
2018-06-13T16:07:38.206Z,62.14
2018-06-13T16:10:05.827Z,62.66
2018-06-13T16:12:32.985Z,62.42
2018-06-13T16:15:00.181Z,61.21
2018-06-13T16:17:27.374Z,62.46
2018-06-13T16:19:54.839Z,61.90
2018-06-13T16:22:22.984Z,62.17
2018-06-13T16:24:50.153Z,61.75
2018-06-13T16:27:17.288Z,62.37
2018-06-13T16:29:45.510Z,61.74
2018-06-13T16:32:12.770Z,60.83
2018-06-13T16:34:40.133Z,60.90
2018-06-13T16:37:07.632Z,62.66
2018-06-13T16:39:35.309Z,61.84
2018-06-13T16:42:02.492Z,61.17
2018-06-13T16:44:29.637Z,59.52
2018-06-13T16:46:56.916Z,61.40
2018-06-13T16:49:24.076Z,62.65
2018-06-13T16:51:54.309Z,60.53
2018-06-13T16:54:33.051Z,61.78
2018-06-13T16:57:00.268Z,60.76
2018-06-13T16:59:27.371Z,61.31
2018-06-13T17:01:54.901Z,61.71
2018-06-13T17:04:22.101Z,61.83
2018-06-13T17:06:49.233Z,61.38
2018-06-13T17:09:16.495Z,61.34
2018-06-13T17:11:43.741Z,61.55
2018-06-13T17:14:10.928Z,62.25
2018-06-13T17:16:38.452Z,61.71
2018-06-13T17:19:05.821Z,62.93
2018-06-13T17:21:33.048Z,62.74
2018-06-13T17:24:00.215Z,62.34
2018-06-13T17:26:29.336Z,62.16
2018-06-13T17:28:58.475Z,61.59
2018-06-13T17:31:25.832Z,61.25
2018-06-13T17:33:52.982Z,61.56
2018-06-13T17:36:20.096Z,63.05
2018-06-13T17:38:47.278Z,62.00
2018-06-13T17:41:14.448Z,63.33
2018-06-13T17:43:41.657Z,63.57
2018-06-13T17:46:08.976Z,61.73
2018-06-13T17:48:36.320Z,63.78
2018-06-13T17:51:04.791Z,63.47
2018-06-13T17:53:31.965Z,62.60
2018-06-13T17:55:59.082Z,63.36
2018-06-13T17:58:26.211Z,63.14
2018-06-13T18:00:53.784Z,61.27
2018-06-13T18:03:26.687Z,61.37
2018-06-13T18:05:53.821Z,61.96
2018-06-13T18:08:21.078Z,63.91
2018-06-13T18:10:48.272Z,62.79
2018-06-13T18:13:17.754Z,62.44
2018-06-13T18:15:45.119Z,63.73
2018-06-13T18:18:12.470Z,63.28
2018-06-13T18:20:39.732Z,63.90
2018-06-13T18:23:07.379Z,63.08
2018-06-13T18:25:34.675Z,63.36
2018-06-13T18:28:01.874Z,62.53
2018-06-13T18:30:29.000Z,64.04
2018-06-13T18:32:57.181Z,62.95
2018-06-13T18:35:24.765Z,64.01
2018-06-13T18:37:54.002Z,63.75
2018-06-13T18:40:21.134Z,62.90
2018-06-13T18:42:48.388Z,62.37
2018-06-13T18:45:15.480Z,63.32
2018-06-13T18:47:42.845Z,64.05
2018-06-13T18:50:10.186Z,65.18
2018-06-13T18:52:37.857Z,65.93
2018-06-13T18:55:06.595Z,64.50
2018-06-13T18:57:34.274Z,64.66
2018-06-13T19:00:01.501Z,65.05
2018-06-13T19:02:30.781Z,65.51
2018-06-13T19:04:57.948Z,66.49
2018-06-13T19:07:25.148Z,67.06
2018-06-13T19:09:54.065Z,68.19
2018-06-13T19:12:22.806Z,65.53
2018-06-13T19:14:50.680Z,66.92
2018-06-13T19:17:18.321Z,68.67
2018-06-13T19:19:46.296Z,66.75
2018-06-13T19:22:15.908Z,65.99
2018-06-13T19:24:45.191Z,68.54
2018-06-13T19:27:13.908Z,71.72
2018-06-13T19:29:42.481Z,67.66
2018-06-13T19:32:09.781Z,68.29
2018-06-13T19:34:37.066Z,69.07
2018-06-13T19:37:04.337Z,67.73
2018-06-13T19:39:32.161Z,65.95
2018-06-13T19:41:59.350Z,66.77
2018-06-13T19:44:26.612Z,66.68
2018-06-13T19:46:58.827Z,66.70
2018-06-13T19:49:26.086Z,66.87
2018-06-13T19:51:53.238Z,68.07
2018-06-13T19:54:26.216Z,67.44
2018-06-13T19:56:53.329Z,70.63
2018-06-13T19:59:21.073Z,68.77
2018-06-13T20:01:51.586Z,72.60
2018-06-13T20:04:25.057Z,75.10
2018-06-13T20:06:52.407Z,75.17
2018-06-13T20:09:20.471Z,76.05
2018-06-13T20:11:49.899Z,75.70
2018-06-13T20:14:23.219Z,77.30
2018-06-13T20:16:56.685Z,77.22
2018-06-13T20:19:30.639Z,78.25
2018-06-13T20:21:59.192Z,77.79
2018-06-13T20:24:26.677Z,73.47
2018-06-13T20:26:59.711Z,78.16
2018-06-13T20:29:32.835Z,76.28
2018-06-13T20:32:00.066Z,72.71
2018-06-13T20:34:27.982Z,72.22
2018-06-13T20:36:55.114Z,74.35
2018-06-13T20:39:22.937Z,73.63
2018-06-13T20:41:50.632Z,74.33
2018-06-13T20:44:18.088Z,71.90
2018-06-13T20:46:45.559Z,71.49
2018-06-13T20:49:13.338Z,71.61
2018-06-13T20:51:40.632Z,71.81
2018-06-13T20:54:07.787Z,72.18
2018-06-13T20:56:34.901Z,71.46
2018-06-13T20:59:02.029Z,71.18
2018-06-13T21:01:29.213Z,71.63
2018-06-13T21:03:56.332Z,73.95
2018-06-13T21:06:23.427Z,70.83
2018-06-13T21:08:50.599Z,71.67
2018-06-13T21:11:17.900Z,70.38
2018-06-13T21:13:45.459Z,72.69
2018-06-13T21:16:12.881Z,70.64
2018-06-13T21:18:40.038Z,72.79
2018-06-13T21:21:07.140Z,70.67
2018-06-13T21:23:34.333Z,69.04
2018-06-13T21:26:01.464Z,69.71
2018-06-13T21:28:29.090Z,68.45
2018-06-13T21:30:56.350Z,70.31
2018-06-13T21:33:23.468Z,68.84
2018-06-13T21:35:50.723Z,67.20
2018-06-13T21:38:18.018Z,68.39
2018-06-13T21:40:45.423Z,67.92
2018-06-13T21:43:13.071Z,68.90
2018-06-13T21:45:40.295Z,67.02
2018-06-13T21:48:07.419Z,68.63
2018-06-13T21:50:34.533Z,67.87
2018-06-13T21:53:01.737Z,66.08
2018-06-13T21:55:28.857Z,66.30
2018-06-13T21:57:56.000Z,65.37
2018-06-13T22:00:23.207Z,65.83
2018-06-13T22:02:50.363Z,65.66
2018-06-13T22:05:17.604Z,66.37
2018-06-13T22:07:44.998Z,65.56
2018-06-13T22:10:12.255Z,66.68
2018-06-13T22:12:39.500Z,65.07
2018-06-13T22:15:11.284Z,65.50
2018-06-13T22:17:38.508Z,65.80
2018-06-13T22:20:05.636Z,65.66
2018-06-13T22:22:32.780Z,65.86
2018-06-13T22:24:59.904Z,65.87
2018-06-13T22:27:27.063Z,65.42
2018-06-13T22:29:54.251Z,65.34
2018-06-13T22:32:21.372Z,64.97
2018-06-13T22:34:48.612Z,64.99
2018-06-13T22:37:15.848Z,64.17
2018-06-13T22:39:43.246Z,64.92
2018-06-13T22:42:10.488Z,64.88
2018-06-13T22:44:37.684Z,64.75
2018-06-13T22:47:04.925Z,64.03
2018-06-13T22:49:32.055Z,64.51
2018-06-13T22:51:59.263Z,63.97
2018-06-13T22:54:26.436Z,64.33
2018-06-13T22:56:53.568Z,64.24
2018-06-13T22:59:20.772Z,65.28
2018-06-13T23:01:47.988Z,63.62
2018-06-13T23:04:15.305Z,64.32
2018-06-13T23:06:42.594Z,63.01
2018-06-13T23:09:09.698Z,63.10
2018-06-13T23:11:36.889Z,63.94
2018-06-13T23:14:04.073Z,64.29
2018-06-13T23:16:31.253Z,63.65
2018-06-13T23:18:58.371Z,63.71
2018-06-13T23:21:25.554Z,64.19
2018-06-13T23:23:52.648Z,64.19
2018-06-13T23:26:19.878Z,63.95
2018-06-13T23:28:47.119Z,63.60
2018-06-13T23:31:14.419Z,63.77
2018-06-13T23:33:41.704Z,64.27
2018-06-13T23:36:08.872Z,64.27
2018-06-13T23:38:36.997Z,63.42
2018-06-13T23:41:05.279Z,66.12
2018-06-13T23:43:32.485Z,63.93
2018-06-13T23:45:59.604Z,63.23
2018-06-13T23:48:26.824Z,63.08
2018-06-13T23:50:53.971Z,64.01
2018-06-13T23:53:21.143Z,62.87
2018-06-13T23:55:48.372Z,62.62
2018-06-13T23:58:15.670Z,62.30
